Timeline UpdatesTrip UpdatesNews PostsPvt PostsTravel TipsAdmin PostsConv PostsFollowed PostsChat RequestsBlog PostsPNR Posts

Disclaimer
Search
 
 
Wed Sep 3, 2014 07:38:06 ISTHomeTrainsΣChainsAtlasPNRForumGalleryNewsFAQTripsMembersLoginFeedback
No Recent News for this Train
Other Trains in the News **new
Latest...
Cancelled on 20/5/14.
Mon May 19, 2014 (06:12PM)
⇐ Return Journey: Train# 13008

13007/Udyan Abha Toofan Express

Time-Table HAS CHANGED.
Yesterday (12:13AM)
Change Departure Station:
Change Arrival Station:
Post a Train Travel TipPost a Train Travel Tip **new
Post a Comment/Question/Picture/VideoPost a Comment/Question/Picture/Video
Inaugural Run
Wed Jan 01, 1930
Pantry/Catering
✕ NO Pantry Car
✕ NO Catering
Loco/Rake Reversals
AGC/Agra Cantt. (6);
RSA - Rake Sharing
Rake/Coach Composition
LOCO-SLR-GEN-GEN-B1-S5-S4-S3-S2-S1-GEN-GEN-SLR-HCPV-HCPV.
Loco
HWH-NDLS: HWH WAP-4 NDLS-SGNR: TKD WDM-3A
News    PNR    Forum    Time-Table    Availability    Fare Chart    Map    Arr/Dep History    Trips    Gallery    ΣChains    X/O    Timeline    
Travel Time: 11h 15m    35 halts    Distance: 544 km    Avg Speed: 48 km/hr
Type: Mail/Express
Zone: ER/Eastern
Departs @ 09:35
Platform# 11
SMTWTFS
Kolkata Howrah Junction/HWH 
Arrives @ 20:50
Platform# 4
SMTWTFS
Patna Junction/PNBE 

35 halts. 131 intermediate Stations between Kolkata Howrah Junction and Patna Junction

Show ALL intermediate Stations  Show Old Time-Table

#CodeStation NameX/OArrivesAvgDepartsAvgHaltPFDay#KmSpeedElevZoneAddress
1HWH»Kolkata Howrah Junction (23)»  -09:35-1110.04210mERHowrah 711101, West Bengal
2BDCBandel Junction (7)X  10:32-10:37-5m--139.57014mERdist - HOOGHLY, West Bengal
3BWNBarddhaman Junction (8)X  11:35-11:40-5m--1106.78234mERDist - Barddhaman, West Bengal
4PANPanagarh (4)  12:15-12:16-1m--1154.75570mERKaksa, West Bengal
5DGRDurgapur (5)X  12:33-12:35-2m31170.37971mERDurgapur, West Bengal
6UDLAndal Junction (6)X  12:48-12:50-2m--1187.36286mERAndal, West Bengal
7RNGRaniGanj (4)X  12:57-12:58-1m--1194.63492mERRaniganj, West Bengal
8ASNAsansol Junction (7)X  13:30-13:35-5m41212.740113mERDist - bardhaman, West Bengal
9STNSitarampur Junction (5)  13:48-13:50-2m--1221.558139mERG T Rd Before Asansol, West Bengal
10CRJChittaranjan (3)X  14:07-14:08-1m31237.866182mERMihijam, Jharkhand
11JMTJamtara (2)X  14:21-14:22-1m11252.163201mERJamtara, Jharkhand
12VDSVidyasagar (2)X  14:39-14:40-1m--1270.066250mERJamtara, Jharkhand
13MDPMadhupur Junction (4)  15:02-15:12-10m21294.267254mER06432-224478, Jharkhand
14JSMEJasidih Junction (5)  15:38-15:43-5m--1323.280271mERJasidih, Jharkhand
15STLSimultala (2)X  16:02-16:03-1m--1348.730247mERSimultala, Bihar
16JAJJhajha (4)  16:40-16:45-5m31367.462143mECRJhajha, Bihar
17GHRGidhaur (2)X  16:56-16:57-1m--1378.873106mECRState Highway 18, Bihar
18JMUJamui (3)X  17:09-17:10-1m--1393.49481mECRState Highway 72, Bihar
19MNPMananpur (2)  17:23-17:24-1m--1413.81757mECRState Highway 18, Bihar
20BSQPBansipur  17:33-17:34-1m--1416.32653mECRKiul, Bihar
21KIULKiul Junction (5)X  17:44-17:48-4m31420.71253mECRDist. Lakhisarai, Bihar
22LKRLuckeesarai Junction (2)X  17:55-17:56-1m--1422.04852mECRLakhisarai, Bihar
23MKBMankatha  18:03-18:04-1m--1427.63547mECRNational Highway 80, Bihar
24DMRXDumri Halt (1)  18:13-18:14-1m11432.85149mECRNational Highway 80, Bihar
25BRYABarhiya (3)  18:19-18:20-1m--1437.15647mECRBarahiya, Bihar
26HTZHathidah Junction (2)  18:30-18:31-1m21446.55650mECRMusahari, Bihar
27MKAMokama Junction (4)X  18:40-18:44-4m--1454.97248mECRPatna, Bihar
28MORMor (2)X  18:50-18:51-1m--1462.15546mECRMor, Bihar
29PHKPunarakh (2)  19:00-19:01-1m--1470.46251mECRPunarakh, Bihar
30BARHBarh (3)X  19:11-19:12-1m--1480.86949mECRBarh, Bihar
31ATLAthmal Gola (2)XO  19:20-19:21-1m--1490.02252mECRPatna, Bihar
32BKPBakhtiyarpur Junction (5)X  19:46-19:48-2m--1499.07951mECRPatna, Bihar
33KOOKhusropur (2)  19:59-20:00-1m--1513.65652mECRPatna, Bihar
34FUTFatwa (6)  20:09-20:10-1m--1522.07353mECRPatna, Bihar
35PNCPatna Saheb (3)X  20:20-20:21-1m--1534.22659mECRPatna, Bihar
36GZHGulzarbagh (3)X  20:28-20:29-1m--1537.32055mECRPatna, Bihar
37PNBE•Patna Junction (10)•X  20:50-21:00-10m41544.13857mECRPatna 800001, Bihar
38DNRDanapur (5)XO  21:15-21:25-10m--1553.56058mECRKhagaul, Bihar
39NEONeora (2)X  21:31-21:32-1m--1559.66161mECRNational Highway 98, Bihar
40SDESadisopur (2)  21:39-21:40-1m--1566.65164mECRSadisopur, Bihar
41BTABihta (2)X  21:45-21:46-1m--1570.94862mECRDistt: Patna, Bihar
42KWRKoelwar (2)O  21:57-21:58-1m--1579.63165mECRNational Highway 30, Bihar
43KUAKulharia (2)  22:05-22:06-1m--1583.25461mECRChandi Sahar Rd, Bihar
44ARAAra Junction (3)  22:17-22:22-5m--1593.19263mECRarrah( 06182-233411), Bihar
45BEABihiya (3)  22:36-22:37-1m--1614.55167mECRBehea, Bihar
46BYNBanahi (2)  22:44-22:45-1m--1620.45967mECRBanahi, Bihar
47RPRRaghunathpur (4)  22:54-22:55-1m--1629.37469mECRRaghunathpur, Bihar
48DUREDumraon (3)  23:08-23:09-1m--1645.26170mECRDumraon, Bihar
49BXRBuxar (3)X  23:25-23:30-5m--1661.68067mECRBuxar, Bihar
50DLNDildarnagar Junction (2)  23:57-23:59-2m--1697.85872mECRDildarnagar, Uttar Pradesh
51ZNAZamania (2)XO  00:13-00:14-1m--2711.22077mECRGhazipur, Uttar Pradesh
52MGSMughal Sarai Junction (8)X  02:25-02:40-15m--2755.55583mECRMughalsarai 232101, Uttar Pradesh
53CARChunar Junction (5)  03:15-03:16-1m22787.46185mNCRChunar Junction, Uttar Pradesh
54MZPMirzapur (3)XO  03:47-03:48-1m--2818.74988mNCRMirzapur, Uttar Pradesh
55BDLVindhyachal (3)X  03:57-03:58-1m--2826.07488mNCRMirzapur, Uttar Pradesh
56ALDAllahabad Junction (10)X  05:05-05:15-10m22908.277100mNCRAllahabad 211003, Uttar Pradesh
57BREBharwariX  05:44-05:45-1m--2945.375108mNCRBharwari, Uttar Pradesh
58SROSirathu (2)X  06:01-06:02-1m12965.471109mNCRSirathu, Uttar Pradesh
59KGAKhaga (3)X  06:23-06:24-1m--2990.252114mNCRFatehpur, Uttar Pradesh
60FTPFatehpur (3)  07:04-07:05-1m--21024.985120mNCRFatehpur, Uttar Pradesh
61BKOBindki Road  07:27-07:28-1m--21056.249124mNCRFatehpur, Uttar Pradesh
62CNBKanpur Central (10)  08:25-08:40-15m221102.525128mNCRKANPUR-208 001, Uttar Pradesh
63GOYGovindpuri Junction (2)  08:49-08:50-1m--21106.351129mNCRKANPUR-208 006, Uttar Pradesh
64PNKPanki (3)  08:59-09:00-1m--21113.986129mNCRKANPUR-208 020, Uttar Pradesh
65RURARura (4)X  09:23-09:24-1m--21146.871137mNCRJhinjhak, Uttar Pradesh
66JJKJhinjhak (3)  09:40-09:41-1m321165.874140mNCRAuraiya, Uttar Pradesh
67PHDPhaphund (4)X  09:57-09:58-1m--21185.667146mNCRdist. Auraiya, Uttar Pradesh
68ULDAchalda (3)X  10:13-10:14-1m--21202.473147mNCRDist. Auraiya(05688-1072), Uttar Pradesh
69BNTBharthana (3)X  10:30-10:31-1m--21221.952147mNCRBharthana, Uttar Pradesh
70ETWEtawah (5)  10:54-10:55-1m221241.880154mNCRDistt. Etawah, Uttar Pradesh
71JGRJaswantnagar (2)X  11:07-11:08-1m--21257.869154mNCRJaswantnagar, Uttar Pradesh
72BDNBhadan (2)  11:25-11:26-1m--21277.252160mNCRFirozabad, Uttar Pradesh
73SKBShikohabad Junction (4)X  11:49-11:50-1m321297.257166mNCRDistrict Firozabad, Uttar Pradesh
74FZDFirozabad (4)O  12:21 12:11-12:22 12:12-1m321317.119164mNCRFirozabad, Uttar Pradesh
75TDLTundla Junction (5)  13:05-13:15-10m221333.621167mNCRDistt.Firozabad, Uttar Pradesh
76AFAgra Fort (3)  14:20-14:25-5m221356.514170mNCRRakabganj, Uttar Pradesh
77IDHIdgah Agra Junction (3)  14:34-14:35-1m--21358.75168mNCRAgra, Uttar Pradesh
78AGCAgra Cantt. (6)XO15:00-15:20-20m321360.913174mNCRAgra, Uttar Pradesh
79RKMRaja Ki Mandi (4)  15:38-15:39-1m121364.965170mNCRAgra, Uttar Pradesh
80MTJMathura Junction (10)  16:25-16:33-8m221414.672179mNCRMathura, Uttar Pradesh
81CHJChata (4)X  16:59-17:00-1m--21445.751 NCRChhata, Uttar Pradesh
82KSVKosi Kalan (3)X  17:12-17:13-1m121456.055189mNCRKosi Kalan, Uttar Pradesh
83PWLPalwal (8)X  17:59-18:00-1m--21498.556200mNRPalwal, Haryana
84ASTAsaoti (5)  18:12-18:13-1m321509.859203mNRAsaoti, Haryana
85BVHBallabgarh (5)  18:23-18:24-1m--21519.750203mNRFaridabad, Haryana
86FDNFaridabad New Town (3)X  18:29-18:30-1m--21523.847204mNRFaridabad, Haryana
87FDBFaridabad (4)  18:35-18:36-1m221527.748206mNRold Faridabad, Haryana
88TKDTuglakabad (4)X  18:50-18:51-1m--21538.833213mNRNear Tughlakabad Metro Station, Delhi NCT
89OKAOkhla (4)  19:02-19:03-1m--21544.822221mNRIshwar Nagar Mathura Road, Delhi NCT
90NZMDelhi Hazrat Nizamuddin (7)XO  19:15 19:13-19:17 19:15-2m321548.529209mNRNew Delhi 110013, Delhi NCT
91TKJTilak Bridge (4)  19:23 19:25-19:24 19:26-1m--21553.310214mNRNew Delhi, Delhi NCT
92NDLSNew Delhi (16)X  19:40-20:10-30m221555.714215mNRNew Delhi, Delhi NCT
93DKZDelhi KishanGanj (2)  20:27-20:28-1m--21559.632220mNRSarai Rohilla, Delhi NCT
94SSBShakur BastiX  20:41-20:42-1m--21566.645216mNRPitampura, Delhi NCT
95NNONangloi  20:52-20:53-1m--21574.058219mNRJJ Colony No 1, Delhi NCT
96BGZBahadurgarh  21:06-21:07-1m--21586.572220mNRBahadurgarh, Haryana
97SPZSamplaX  21:22-21:23-1m--21604.450222mNRSampla, Haryana
98ROKRohtak Junction (3)  21:50-21:55-5m--21626.872220mNRRohtak, Haryana
99JNAJulana  22:23 22:21-22:24 22:22-1m--21658.247226mNRJulana, Haryana
100JINDJind Junction (3)  22:55-23:00-5m--21683.970222mNR126102., Haryana
101UCAUchana  23:16-23:17-1m--21702.665225mNRDistrict Jind, Haryana
102NRWNarwana Junction (4)  23:31-23:32-1m--21717.873235mNRWay to Narwana, Haryana
103TUNTohana (2)  23:53-23:54-1m--21743.235232mNRTohana, Haryana
104JHLJakhal Junction  00:15-00:25-10m--31755.543225mNRJakhal, Haryana
105BLZBudhladaX  01:06-01:07-1m--31785.148223mNRBudhlada, Punjab
106MSZMansa  01:27-01:28-1m--31801.249222mNRMansa, Punjab
107MAURMaur  01:51-01:52-1m--31819.926220mNRMaur Mandi, Punjab
108BTIBathinda Junction (6)XO  03:15-04:05-50m231855.473208mNRBathinda, Punjab
109GDBGiddarbaha  04:28-04:29-1m--31883.257200mNRGiddarbaha, Punjab
110MOTMalout (1)  04:46-04:47-1m131899.444194mNRMalaut, Punjab
111ABSAbohar  05:27-05:28-1m--31928.935186mNRAbohar, Punjab
112SGNRShri Ganganagar  07:00--331982.0-178mNWRSri Ganganagar, Rajasthan
Scroll to Top
Scroll to Bottom